createdAt,value
2018-03-24T00:00:48.042Z,20.62
2018-03-24T00:03:14.379Z,20.63
2018-03-24T00:05:40.714Z,20.65
2018-03-24T00:08:07.065Z,20.65
2018-03-24T00:10:33.408Z,20.58
2018-03-24T00:12:59.790Z,20.66
2018-03-24T00:15:26.113Z,20.58
2018-03-24T00:17:52.486Z,20.53
2018-03-24T00:20:18.906Z,20.51
2018-03-24T00:22:45.286Z,20.53
2018-03-24T00:25:11.675Z,20.54
2018-03-24T00:27:38.090Z,20.57
2018-03-24T00:30:04.470Z,20.53
2018-03-24T00:32:30.809Z,20.57
2018-03-24T00:34:57.239Z,20.51
2018-03-24T00:37:23.657Z,20.43
2018-03-24T00:39:49.999Z,20.47
2018-03-24T00:42:16.421Z,20.50
2018-03-24T00:44:42.978Z,20.45
2018-03-24T00:47:09.711Z,20.50
2018-03-24T00:49:36.106Z,20.53
2018-03-24T00:52:02.497Z,20.43
2018-03-24T00:54:28.862Z,20.52
2018-03-24T00:56:55.234Z,20.44
2018-03-24T00:59:21.573Z,20.50
2018-03-24T01:01:47.968Z,20.46
2018-03-24T01:04:14.305Z,20.34
2018-03-24T01:06:40.735Z,20.39
2018-03-24T01:09:07.082Z,20.43
2018-03-24T01:11:33.695Z,20.44
2018-03-24T01:14:00.030Z,20.43
2018-03-24T01:16:26.382Z,20.36
2018-03-24T01:18:52.764Z,20.45
2018-03-24T01:21:19.095Z,20.35
2018-03-24T01:23:45.437Z,20.37
2018-03-24T01:26:11.794Z,20.37
2018-03-24T01:28:38.152Z,20.31
2018-03-24T01:31:04.698Z,20.39
2018-03-24T01:33:31.061Z,20.40
2018-03-24T01:35:57.418Z,20.38
2018-03-24T01:38:23.754Z,20.34
2018-03-24T01:40:50.077Z,20.35
2018-03-24T01:43:16.407Z,20.33
2018-03-24T01:45:42.845Z,20.30
2018-03-24T01:48:09.169Z,20.33
2018-03-24T01:50:35.558Z,20.12
2018-03-24T01:53:01.945Z,20.38
2018-03-24T01:55:28.329Z,20.38
2018-03-24T01:57:54.671Z,20.35
2018-03-24T02:00:21.070Z,20.34
2018-03-24T02:02:47.553Z,20.29
2018-03-24T02:05:13.995Z,20.24
2018-03-24T02:07:40.347Z,20.22
2018-03-24T02:10:06.716Z,20.31
2018-03-24T02:12:33.148Z,20.31
2018-03-24T02:14:59.707Z,20.32
2018-03-24T02:17:26.245Z,20.30
2018-03-24T02:19:52.618Z,20.29
2018-03-24T02:22:19.014Z,20.25
2018-03-24T02:24:45.416Z,20.23
2018-03-24T02:27:11.891Z,20.26
2018-03-24T02:29:38.287Z,20.25
2018-03-24T02:32:04.669Z,20.12
2018-03-24T02:34:31.050Z,20.14
2018-03-24T02:36:57.414Z,20.26
2018-03-24T02:39:23.851Z,20.00
2018-03-24T02:41:50.298Z,20.10
2018-03-24T02:44:16.705Z,20.22
2018-03-24T02:46:43.060Z,20.22
2018-03-24T02:49:09.405Z,20.23
2018-03-24T02:51:35.802Z,20.13
2018-03-24T02:54:02.168Z,20.21
2018-03-24T02:56:28.527Z,20.21
2018-03-24T02:58:54.944Z,19.70
2018-03-24T03:01:21.382Z,20.14
2018-03-24T03:03:47.681Z,20.08
2018-03-24T03:06:14.048Z,19.87
2018-03-24T03:08:40.429Z,20.14
2018-03-24T03:11:06.762Z,20.17
2018-03-24T03:13:33.150Z,20.17
2018-03-24T03:15:59.486Z,20.17
2018-03-24T03:18:25.870Z,20.12
2018-03-24T03:20:52.206Z,20.15
2018-03-24T03:23:18.565Z,20.07
2018-03-24T03:25:44.965Z,20.13
2018-03-24T03:28:11.307Z,20.10
2018-03-24T03:30:37.726Z,20.11
2018-03-24T03:33:04.177Z,20.04
2018-03-24T03:35:30.486Z,20.12
2018-03-24T03:37:56.854Z,20.13
2018-03-24T03:40:23.199Z,20.12
2018-03-24T03:42:49.531Z,20.08
2018-03-24T03:45:15.950Z,20.05
2018-03-24T03:47:42.278Z,19.90
2018-03-24T03:50:08.607Z,19.91
2018-03-24T03:52:34.957Z,19.99
2018-03-24T03:55:01.354Z,20.02
2018-03-24T03:57:27.678Z,20.04
2018-03-24T03:59:54.091Z,20.09
2018-03-24T04:02:20.489Z,20.07
2018-03-24T04:04:46.845Z,20.06
2018-03-24T04:07:13.198Z,20.04
2018-03-24T04:09:39.582Z,19.93
2018-03-24T04:12:05.916Z,19.94
2018-03-24T04:14:32.256Z,19.98
2018-03-24T04:16:58.640Z,19.94
2018-03-24T04:19:24.985Z,20.07
2018-03-24T04:21:51.378Z,20.08
2018-03-24T04:24:17.708Z,19.93
2018-03-24T04:26:44.068Z,20.01
2018-03-24T04:29:10.418Z,20.04
2018-03-24T04:31:36.755Z,20.04
2018-03-24T04:34:03.090Z,19.80
2018-03-24T04:36:29.427Z,19.82
2018-03-24T04:38:55.752Z,19.95
2018-03-24T04:41:22.128Z,20.01
2018-03-24T04:43:48.470Z,20.02
2018-03-24T04:46:14.859Z,19.85
2018-03-24T04:48:41.198Z,20.05
2018-03-24T04:51:07.581Z,19.92
2018-03-24T04:53:33.911Z,19.88
2018-03-24T04:56:00.249Z,19.90
2018-03-24T04:58:26.582Z,19.95
2018-03-24T05:00:52.913Z,19.98
2018-03-24T05:03:19.261Z,20.00
2018-03-24T05:05:45.621Z,20.01
2018-03-24T05:08:12.031Z,19.87
2018-03-24T05:10:38.410Z,19.83
2018-03-24T05:13:04.774Z,19.96
2018-03-24T05:15:31.129Z,19.88
2018-03-24T05:17:57.485Z,19.99
2018-03-24T05:20:23.821Z,19.99
2018-03-24T05:22:50.146Z,19.97
2018-03-24T05:25:16.489Z,20.04
2018-03-24T05:27:42.822Z,19.99
2018-03-24T05:30:09.154Z,19.99
2018-03-24T05:32:35.530Z,19.93
2018-03-24T05:35:01.930Z,19.95
2018-03-24T05:37:28.262Z,19.90
2018-03-24T05:39:54.606Z,19.95
2018-03-24T05:42:20.935Z,19.97
2018-03-24T05:44:47.322Z,19.83
2018-03-24T05:47:13.662Z,20.03
2018-03-24T05:49:40.007Z,19.92
2018-03-24T05:52:06.331Z,19.89
2018-03-24T05:54:32.701Z,20.01
2018-03-24T05:56:59.072Z,19.93
2018-03-24T05:59:25.402Z,19.70
2018-03-24T06:01:51.726Z,19.87
2018-03-24T06:04:18.069Z,19.93
2018-03-24T06:06:44.414Z,19.89
2018-03-24T06:09:10.787Z,20.00
2018-03-24T06:11:37.165Z,19.99
2018-03-24T06:14:03.495Z,19.99
2018-03-24T06:16:29.862Z,19.98
2018-03-24T06:18:56.199Z,19.96
2018-03-24T06:21:22.538Z,19.88
2018-03-24T06:23:48.901Z,19.85
2018-03-24T06:26:15.250Z,19.88
2018-03-24T06:28:41.614Z,19.97
2018-03-24T06:31:07.999Z,19.98
2018-03-24T06:33:34.342Z,19.93
2018-03-24T06:36:00.686Z,20.04
2018-03-24T06:38:27.018Z,20.04
2018-03-24T06:40:53.362Z,19.88
2018-03-24T06:43:19.698Z,19.97
2018-03-24T06:45:46.044Z,20.02
2018-03-24T06:48:12.397Z,20.00
2018-03-24T06:50:38.727Z,19.81
2018-03-24T06:53:05.089Z,20.02
2018-03-24T06:55:31.466Z,20.01
2018-03-24T06:57:57.843Z,19.75
2018-03-24T07:00:24.181Z,20.02
2018-03-24T07:02:50.558Z,19.94
2018-03-24T07:05:16.987Z,20.00
2018-03-24T07:07:43.380Z,20.06
2018-03-24T07:10:09.771Z,19.99
2018-03-24T07:12:36.098Z,20.06
2018-03-24T07:15:02.473Z,20.06
2018-03-24T07:17:28.815Z,20.05
2018-03-24T07:19:55.196Z,20.10
2018-03-24T07:22:21.574Z,19.93
2018-03-24T07:24:47.918Z,20.00
2018-03-24T07:27:14.279Z,19.80
2018-03-24T07:29:40.670Z,20.01
2018-03-24T07:32:07.045Z,19.98
2018-03-24T07:34:33.384Z,20.06
2018-03-24T07:36:59.765Z,20.06
2018-03-24T07:39:26.118Z,20.15
2018-03-24T07:41:52.445Z,20.15
2018-03-24T07:44:18.825Z,20.12
2018-03-24T07:46:45.199Z,20.06
2018-03-24T07:49:11.558Z,20.06
2018-03-24T07:51:37.943Z,19.92
2018-03-24T07:54:04.310Z,20.12
2018-03-24T07:56:30.629Z,20.11
2018-03-24T07:58:57.009Z,20.20
2018-03-24T08:01:23.454Z,20.10
2018-03-24T08:03:49.817Z,20.15
2018-03-24T08:06:16.222Z,20.14
2018-03-24T08:08:42.582Z,20.14
2018-03-24T08:11:08.935Z,20.17
2018-03-24T08:13:35.266Z,20.21
2018-03-24T08:16:01.641Z,20.13
2018-03-24T08:18:27.973Z,20.18
2018-03-24T08:20:54.338Z,20.16
2018-03-24T08:23:20.689Z,20.12
2018-03-24T08:25:47.062Z,20.26
2018-03-24T08:28:13.454Z,20.18
2018-03-24T08:30:39.826Z,20.25
2018-03-24T08:33:06.221Z,20.19
2018-03-24T08:35:32.592Z,20.24
2018-03-24T08:37:58.966Z,20.22
2018-03-24T08:40:25.342Z,20.26
2018-03-24T08:42:51.685Z,20.21
2018-03-24T08:45:18.088Z,20.25
2018-03-24T08:47:44.434Z,20.05
2018-03-24T08:50:10.799Z,20.05
2018-03-24T08:52:37.188Z,20.33
2018-03-24T08:55:03.540Z,20.29
2018-03-24T08:57:29.894Z,20.23
2018-03-24T08:59:56.268Z,20.16
2018-03-24T09:02:22.638Z,20.34
2018-03-24T09:04:49.023Z,20.32
2018-03-24T09:07:15.394Z,20.33
2018-03-24T09:09:41.789Z,20.32
2018-03-24T09:12:08.127Z,20.32
2018-03-24T09:14:34.504Z,20.27
2018-03-24T09:17:00.833Z,20.31
2018-03-24T09:19:27.236Z,20.36
2018-03-24T09:21:53.643Z,20.27
2018-03-24T09:24:20.053Z,20.39
2018-03-24T09:26:46.423Z,20.41
2018-03-24T09:29:12.750Z,20.22
2018-03-24T09:31:39.125Z,20.00
2018-03-24T09:34:05.468Z,20.41
2018-03-24T09:36:31.805Z,20.40
2018-03-24T09:38:58.166Z,20.41
2018-03-24T09:41:24.524Z,20.46
2018-03-24T09:43:50.850Z,20.42
2018-03-24T09:46:17.226Z,20.48
2018-03-24T09:48:43.612Z,20.44
2018-03-24T09:51:09.945Z,20.40
2018-03-24T09:53:36.323Z,20.38
2018-03-24T09:56:02.678Z,20.34
2018-03-24T09:58:29.055Z,20.46
2018-03-24T10:00:55.426Z,20.56
2018-03-24T10:03:21.816Z,20.51
2018-03-24T10:05:48.141Z,20.58
2018-03-24T10:08:14.491Z,20.57
2018-03-24T10:10:40.830Z,20.58
2018-03-24T10:13:07.215Z,20.67
2018-03-24T10:15:33.652Z,20.65
2018-03-24T10:18:00.003Z,20.67
2018-03-24T10:20:26.362Z,20.51
2018-03-24T10:22:52.733Z,20.71
2018-03-24T10:25:19.068Z,20.64
2018-03-24T10:27:45.434Z,20.73
2018-03-24T10:30:11.780Z,20.62
2018-03-24T10:32:38.182Z,20.53
2018-03-24T10:35:04.514Z,20.75
2018-03-24T10:37:30.888Z,20.68
2018-03-24T10:39:57.239Z,20.66
2018-03-24T10:42:23.613Z,20.61
2018-03-24T10:44:49.994Z,20.90
2018-03-24T10:47:16.368Z,20.77
2018-03-24T10:49:42.800Z,20.87
2018-03-24T10:52:09.166Z,20.93
2018-03-24T10:54:35.543Z,21.04
2018-03-24T10:57:01.925Z,20.96
2018-03-24T10:59:28.297Z,21.00
2018-03-24T11:01:54.674Z,21.02
2018-03-24T11:04:21.112Z,21.08
2018-03-24T11:06:47.495Z,20.93
2018-03-24T11:11:53.090Z,21.09
2018-03-24T11:14:19.450Z,21.19
2018-03-24T11:16:45.839Z,21.25
2018-03-24T11:19:12.231Z,21.24
2018-03-24T11:21:38.649Z,21.23
2018-03-24T11:24:05.001Z,21.27
2018-03-24T11:26:31.397Z,21.27
2018-03-24T11:28:57.713Z,21.32
2018-03-24T11:31:24.130Z,21.37
2018-03-24T11:33:50.510Z,21.27
2018-03-24T11:36:16.885Z,21.10
2018-03-24T11:38:43.266Z,21.16
2018-03-24T11:41:09.597Z,21.41
2018-03-24T11:43:36.006Z,21.45
2018-03-24T11:46:02.373Z,21.40
2018-03-24T11:48:28.730Z,21.37
2018-03-24T11:50:55.131Z,21.37
2018-03-24T11:53:21.461Z,21.34
2018-03-24T11:55:47.874Z,21.35
2018-03-24T11:58:14.307Z,21.37
2018-03-24T12:00:40.637Z,21.40
2018-03-24T12:03:06.978Z,21.52
2018-03-24T12:05:33.382Z,21.51
2018-03-24T12:07:59.724Z,21.46
2018-03-24T12:10:26.097Z,21.48
2018-03-24T12:12:52.433Z,21.50
2018-03-24T12:15:18.873Z,21.50
2018-03-24T12:17:45.235Z,21.50
2018-03-24T12:20:11.638Z,21.52
2018-03-24T12:22:38.004Z,21.49
2018-03-24T12:25:04.366Z,21.38
2018-03-24T12:27:30.763Z,21.47
2018-03-24T12:29:57.123Z,21.38
2018-03-24T12:32:23.545Z,21.45
2018-03-24T12:34:49.889Z,21.52
2018-03-24T12:37:16.214Z,21.54
2018-03-24T12:39:42.610Z,21.41
2018-03-24T12:42:09.003Z,21.51
2018-03-24T12:44:35.318Z,21.51
2018-03-24T12:47:01.723Z,21.50
2018-03-24T12:49:28.081Z,21.46
2018-03-24T12:51:54.462Z,21.50
2018-03-24T12:54:20.801Z,21.51
2018-03-24T12:56:47.128Z,21.44
2018-03-24T12:59:13.509Z,21.40
2018-03-24T13:01:39.881Z,21.35
2018-03-24T13:04:06.239Z,21.29
2018-03-24T13:06:32.565Z,21.47
2018-03-24T13:08:58.957Z,21.51
2018-03-24T13:11:25.298Z,21.47
2018-03-24T13:13:51.662Z,21.33
2018-03-24T13:16:18.029Z,21.50
2018-03-24T13:18:44.436Z,21.44
2018-03-24T13:21:10.809Z,21.47
2018-03-24T13:23:37.249Z,21.48
